createdAt,value
2018-02-14T00:01:25.116Z,85.00
2018-02-14T00:03:52.594Z,84.70
2018-02-14T00:06:20.130Z,84.40
2018-02-14T00:08:47.601Z,84.30
2018-02-14T00:11:15.170Z,84.30
2018-02-14T00:13:42.791Z,84.30
2018-02-14T00:16:10.256Z,84.30
2018-02-14T00:18:37.710Z,83.90
2018-02-14T00:21:06.008Z,83.90
2018-02-14T00:23:33.482Z,83.90
2018-02-14T00:26:00.949Z,83.90
2018-02-14T00:28:28.486Z,84.10
2018-02-14T00:30:55.953Z,84.10
2018-02-14T00:33:23.442Z,84.20
2018-02-14T00:35:51.691Z,84.20
2018-02-14T00:38:19.172Z,84.20
2018-02-14T00:40:47.411Z,84.80
2018-02-14T00:43:14.893Z,84.30
2018-02-14T00:45:42.368Z,84.70
2018-02-14T00:48:10.616Z,85.10
2018-02-14T00:50:38.086Z,85.10
2018-02-14T00:53:05.582Z,85.10
2018-02-14T00:55:33.039Z,85.10
2018-02-14T00:58:00.521Z,85.80
2018-02-14T01:00:27.986Z,85.00
2018-02-14T01:02:55.466Z,84.80
2018-02-14T01:05:22.931Z,85.30
2018-02-14T01:07:50.404Z,84.40
2018-02-14T01:10:17.872Z,84.40
2018-02-14T01:12:46.119Z,84.60
2018-02-14T01:15:13.586Z,84.50
2018-02-14T01:17:41.072Z,84.40
2018-02-14T01:20:08.540Z,84.30
2018-02-14T01:22:46.775Z,84.20
2018-02-14T01:25:14.256Z,84.10
2018-02-14T01:27:41.754Z,84.00
2018-02-14T01:30:10.009Z,84.30
2018-02-14T01:32:37.476Z,84.30
2018-02-14T01:35:05.726Z,83.80
2018-02-14T01:37:33.205Z,83.70
2018-02-14T01:40:00.673Z,83.70
2018-02-14T01:42:28.148Z,83.90
2018-02-14T01:44:55.608Z,84.10
2018-02-14T01:47:23.084Z,84.10
2018-02-14T01:49:50.569Z,84.40
2018-02-14T01:52:18.042Z,84.20
2018-02-14T01:54:45.524Z,84.00
2018-02-14T01:57:13.760Z,84.00
2018-02-14T01:59:41.257Z,84.00
2018-02-14T02:02:09.483Z,83.40
2018-02-14T02:04:36.954Z,83.50
2018-02-14T02:07:04.428Z,83.20
2018-02-14T02:09:31.935Z,83.60
2018-02-14T02:11:59.400Z,84.00
2018-02-14T02:14:26.865Z,83.80
2018-02-14T02:16:54.351Z,83.80
2018-02-14T02:19:22.589Z,83.50
2018-02-14T02:21:50.067Z,83.50
2018-02-14T02:24:17.543Z,83.20
2018-02-14T02:26:45.042Z,83.00
2018-02-14T02:29:13.273Z,83.10
2018-02-14T02:31:40.749Z,83.10
2018-02-14T02:34:08.213Z,83.10
2018-02-14T02:36:35.688Z,83.10
2018-02-14T02:41:58.898Z,83.50
2018-02-14T02:44:26.394Z,83.20
2018-02-14T02:46:53.870Z,83.10
2018-02-14T02:49:22.129Z,83.40
2018-02-14T02:51:49.602Z,83.30
2018-02-14T02:54:17.086Z,83.40
2018-02-14T02:56:44.560Z,83.50
2018-02-14T02:59:12.040Z,83.50
2018-02-14T03:01:39.508Z,83.70
2018-02-14T03:04:06.985Z,83.80
2018-02-14T03:06:34.444Z,83.70
2018-02-14T03:09:01.903Z,83.50
2018-02-14T03:11:29.386Z,83.30
2018-02-14T03:13:56.868Z,83.00
2018-02-14T03:16:24.345Z,82.80
2018-02-14T03:18:52.582Z,82.70
2018-02-14T03:21:20.818Z,82.60
2018-02-14T03:23:48.294Z,82.60
2018-02-14T03:26:15.762Z,82.90
2018-02-14T03:28:44.005Z,82.60
2018-02-14T03:31:11.474Z,82.60
2018-02-14T03:33:38.955Z,82.40
2018-02-14T03:36:07.207Z,82.10
2018-02-14T03:38:34.678Z,82.10
2018-02-14T03:41:02.164Z,82.40
2018-02-14T03:43:29.640Z,82.40
2018-02-14T03:45:57.116Z,82.40
2018-02-14T03:48:25.576Z,82.30
2018-02-14T03:50:53.056Z,82.20
2018-02-14T03:53:20.521Z,82.30
2018-02-14T03:55:48.004Z,82.40
2018-02-14T03:58:15.489Z,82.20
2018-02-14T04:00:42.993Z,82.30
2018-02-14T04:03:10.492Z,82.20
2018-02-14T04:05:38.723Z,82.00
2018-02-14T04:08:06.200Z,82.00
2018-02-14T04:10:33.657Z,82.00
2018-02-14T04:13:01.127Z,82.10
2018-02-14T04:15:28.600Z,82.20
2018-02-14T04:17:56.848Z,82.50
2018-02-14T04:20:24.313Z,82.10
2018-02-14T04:22:51.780Z,82.00
2018-02-14T04:25:19.266Z,82.00
2018-02-14T04:27:46.757Z,82.20
2018-02-14T04:30:19.097Z,82.20
2018-02-14T04:32:46.581Z,82.40
2018-02-14T04:35:14.048Z,82.40
2018-02-14T04:37:41.539Z,82.20
2018-02-14T04:40:09.013Z,82.30
2018-02-14T04:42:37.262Z,82.50
2018-02-14T04:45:04.721Z,82.50
2018-02-14T04:47:32.201Z,82.50
2018-02-14T04:50:00.463Z,82.30
2018-02-14T04:52:27.940Z,82.30
2018-02-14T04:54:56.186Z,82.60
2018-02-14T04:57:23.670Z,82.60
2018-02-14T04:59:51.920Z,83.00
2018-02-14T05:02:19.385Z,82.30
2018-02-14T05:04:46.875Z,82.10
2018-02-14T05:07:15.135Z,82.20
2018-02-14T05:09:42.608Z,82.10
2018-02-14T05:12:10.852Z,82.40
2018-02-14T05:14:38.341Z,82.30
2018-02-14T05:17:06.579Z,82.40
2018-02-14T05:19:34.047Z,82.40
2018-02-14T05:22:06.781Z,82.60
2018-02-14T05:24:34.264Z,82.40
2018-02-14T05:27:01.737Z,82.30
2018-02-14T05:29:29.978Z,82.20
2018-02-14T05:31:57.450Z,82.20
2018-02-14T05:34:24.934Z,82.10
2018-02-14T05:36:52.420Z,82.60
2018-02-14T05:39:19.917Z,82.60
2018-02-14T05:41:47.380Z,82.70
2018-02-14T05:44:14.858Z,82.70
2018-02-14T05:46:42.327Z,82.30
2018-02-14T05:49:09.813Z,81.90
2018-02-14T05:51:38.058Z,82.20
2018-02-14T05:54:05.541Z,82.10
2018-02-14T05:56:33.770Z,82.20
2018-02-14T05:59:01.250Z,82.20
2018-02-14T06:01:28.722Z,81.80
2018-02-14T06:03:56.232Z,81.60
2018-02-14T06:06:23.707Z,81.10
2018-02-14T06:08:51.210Z,81.30
2018-02-14T06:11:19.474Z,81.50
2018-02-14T06:13:46.959Z,81.50
2018-02-14T06:16:15.193Z,81.90
2018-02-14T06:18:42.655Z,81.90
2018-02-14T06:21:10.901Z,81.10
2018-02-14T06:23:38.386Z,81.40
2018-02-14T06:26:05.870Z,81.40
2018-02-14T06:28:33.346Z,81.50
2018-02-14T06:31:00.836Z,81.40
2018-02-14T06:33:28.307Z,81.40
2018-02-14T06:35:55.810Z,81.30
2018-02-14T06:38:23.277Z,81.40
2018-02-14T06:40:50.753Z,81.60
2018-02-14T06:43:18.230Z,81.90
2018-02-14T06:45:45.704Z,82.20
2018-02-14T06:48:13.164Z,82.50
2018-02-14T06:50:40.640Z,82.40
2018-02-14T06:53:08.153Z,82.30
2018-02-14T06:55:35.662Z,82.50
2018-02-14T06:58:03.133Z,82.70
2018-02-14T07:00:31.393Z,82.30
2018-02-14T07:02:58.870Z,82.20
2018-02-14T07:05:27.116Z,81.30
2018-02-14T07:07:54.704Z,81.30
2018-02-14T07:10:22.977Z,81.10
2018-02-14T07:12:51.240Z,81.70
2018-02-14T07:15:18.755Z,81.60
2018-02-14T07:17:46.234Z,81.70
2018-02-14T07:20:13.710Z,81.60
2018-02-14T07:22:41.198Z,81.30
2018-02-14T07:25:09.481Z,82.20
2018-02-14T07:27:36.976Z,82.10
2018-02-14T07:30:04.492Z,82.10
2018-02-14T07:32:31.991Z,81.80
2018-02-14T07:34:59.516Z,82.00
2018-02-14T07:37:27.059Z,82.10
2018-02-14T07:39:54.542Z,82.50
2018-02-14T07:42:22.022Z,82.70
2018-02-14T07:44:49.485Z,82.70
2018-02-14T07:47:16.950Z,83.10
2018-02-14T07:49:44.661Z,83.10
2018-02-14T07:52:12.928Z,83.10
2018-02-14T07:54:41.176Z,83.20
2018-02-14T07:57:08.658Z,83.20
2018-02-14T07:59:36.133Z,83.20
2018-02-14T08:02:04.373Z,83.30
2018-02-14T08:04:31.856Z,83.30
2018-02-14T08:06:59.322Z,83.30
2018-02-14T08:09:27.588Z,83.60
2018-02-14T08:11:55.056Z,83.60
2018-02-14T08:14:23.303Z,83.80
2018-02-14T08:16:50.795Z,83.80
2018-02-14T08:19:19.026Z,83.90
2018-02-14T08:21:46.507Z,83.90
2018-02-14T08:24:13.994Z,83.90
2018-02-14T08:26:41.457Z,84.20
2018-02-14T08:29:08.944Z,84.30
2018-02-14T08:31:36.424Z,84.40
2018-02-14T08:34:03.916Z,84.60
2018-02-14T08:36:32.162Z,84.80
2018-02-14T08:39:16.091Z,84.80
2018-02-14T08:41:43.578Z,85.20
2018-02-14T08:44:11.043Z,85.20
2018-02-14T08:46:38.512Z,85.10
2018-02-14T08:49:06.759Z,85.00
2018-02-14T08:51:34.240Z,84.90
2018-02-14T08:54:01.720Z,85.20
2018-02-14T08:56:29.976Z,85.70
2018-02-14T08:58:57.412Z,85.70
2018-02-14T09:01:24.889Z,85.70
2018-02-14T09:03:53.126Z,86.10
2018-02-14T09:06:20.604Z,86.10
2018-02-14T09:08:48.075Z,86.20
2018-02-14T09:11:15.550Z,86.30
2018-02-14T09:13:43.776Z,86.50
2018-02-14T09:16:11.242Z,86.50
2018-02-14T09:18:38.719Z,86.30
2018-02-14T09:21:06.210Z,86.40
2018-02-14T09:23:33.685Z,86.50
2018-02-14T09:26:01.173Z,86.60
2018-02-14T09:28:29.400Z,86.80
2018-02-14T09:30:56.891Z,86.80
2018-02-14T09:33:24.360Z,86.90
2018-02-14T09:35:51.845Z,87.10
2018-02-14T09:38:19.326Z,87.20
2018-02-14T09:40:47.572Z,87.90
2018-02-14T09:43:15.046Z,87.90
2018-02-14T09:45:42.518Z,87.70
2018-02-14T09:48:10.749Z,87.50
2018-02-14T09:50:38.222Z,87.50
2018-02-14T09:53:05.691Z,87.80
2018-02-14T09:55:33.174Z,87.70
2018-02-14T09:58:00.638Z,87.00
2018-02-14T10:00:28.118Z,86.60
2018-02-14T10:02:55.603Z,86.20
2018-02-14T10:05:23.099Z,85.90
2018-02-14T10:07:51.330Z,85.50
2018-02-14T10:10:18.808Z,85.50
2018-02-14T10:12:46.270Z,85.40
2018-02-14T10:15:13.754Z,84.80
2018-02-14T10:17:41.994Z,83.30
2018-02-14T10:20:09.474Z,83.30
2018-02-14T10:22:37.698Z,82.30
2018-02-14T10:25:05.178Z,82.30
2018-02-14T10:27:32.657Z,81.80
2018-02-14T10:30:00.130Z,81.60
2018-02-14T10:32:27.611Z,81.20
2018-02-14T10:34:55.075Z,80.90
2018-02-14T10:37:22.551Z,81.00
2018-02-14T10:39:50.015Z,80.20
2018-02-14T10:42:17.489Z,80.00
2018-02-14T10:44:44.961Z,80.00
2018-02-14T10:47:12.440Z,80.10
2018-02-14T10:49:40.666Z,79.30
2018-02-14T10:52:08.141Z,79.30
2018-02-14T10:54:35.616Z,78.50
2018-02-14T10:57:03.097Z,78.00
2018-02-14T10:59:31.321Z,77.00
2018-02-14T11:02:04.414Z,77.00
2018-02-14T11:04:31.893Z,76.90
2018-02-14T11:07:04.969Z,76.00
2018-02-14T11:09:32.444Z,75.40
2018-02-14T11:11:59.936Z,75.10
2018-02-14T11:14:27.423Z,75.20
2018-02-14T11:16:54.938Z,75.00
2018-02-14T11:19:23.189Z,74.00
2018-02-14T11:21:50.665Z,74.00
2018-02-14T11:24:18.889Z,73.10
2018-02-14T11:26:46.384Z,73.10
2018-02-14T11:29:13.860Z,72.60
2018-02-14T11:31:42.123Z,71.80
2018-02-14T11:34:09.607Z,71.80
2018-02-14T11:36:37.088Z,72.30
2018-02-14T11:39:04.569Z,72.00
2018-02-14T11:41:32.093Z,71.70
2018-02-14T11:44:00.321Z,71.40
2018-02-14T11:46:27.788Z,71.30
2018-02-14T11:48:56.060Z,71.40
2018-02-14T11:51:23.545Z,71.30
2018-02-14T11:53:51.038Z,70.90
2018-02-14T11:56:18.504Z,71.00
2018-02-14T11:58:46.003Z,70.00
2018-02-14T12:01:15.159Z,68.60
2018-02-14T12:03:42.650Z,68.60
2018-02-14T12:06:10.123Z,67.50
2018-02-14T12:08:38.384Z,67.20
2018-02-14T12:11:05.854Z,67.20
2018-02-14T12:13:33.342Z,67.20
2018-02-14T12:16:00.820Z,65.40
2018-02-14T12:18:28.304Z,65.20
2018-02-14T12:20:55.782Z,65.20
2018-02-14T12:23:23.258Z,65.40
2018-02-14T12:25:51.678Z,63.60
2018-02-14T12:28:19.778Z,63.60
2018-02-14T12:30:47.285Z,63.60
2018-02-14T12:33:14.748Z,63.40
2018-02-14T12:35:42.289Z,62.90
2018-02-14T12:38:09.776Z,62.70
2018-02-14T12:40:37.274Z,63.00
2018-02-14T12:43:04.745Z,62.70
2018-02-14T12:45:32.255Z,61.90
2018-02-14T12:47:59.781Z,61.70
2018-02-14T12:50:28.019Z,61.60
2018-02-14T12:52:55.487Z,61.60
2018-02-14T12:55:23.029Z,60.80
2018-02-14T12:57:50.498Z,61.00
2018-02-14T13:00:18.971Z,60.90
2018-02-14T13:02:46.440Z,60.50
2018-02-14T13:05:16.127Z,59.30
2018-02-14T13:07:43.603Z,59.30
2018-02-14T13:10:11.094Z,58.80
2018-02-14T13:12:39.330Z,58.70
2018-02-14T13:15:07.626Z,58.20
2018-02-14T13:17:35.078Z,58.20
2018-02-14T13:20:03.521Z,58.30
2018-02-14T13:22:31.075Z,57.70
2018-02-14T13:24:58.541Z,58.10
2018-02-14T13:27:26.086Z,58.70
2018-02-14T13:29:53.557Z,59.30
2018-02-14T13:32:21.017Z,59.10
2018-02-14T13:34:48.486Z,58.30
2018-02-14T13:37:15.988Z,57.80
2018-02-14T13:39:44.732Z,57.70
2018-02-14T13:42:12.221Z,57.90
2018-02-14T13:44:39.977Z,58.10
2018-02-14T13:47:08.620Z,57.90
2018-02-14T13:49:37.299Z,58.20
2018-02-14T13:52:05.529Z,58.80
2018-02-14T13:54:33.021Z,58.80
2018-02-14T13:57:02.226Z,58.80
2018-02-14T13:59:29.775Z,58.50
2018-02-14T14:01:57.282Z,58.10
2018-02-14T14:04:24.778Z,58.50
2018-02-14T14:06:53.061Z,59.40
2018-02-14T14:09:21.307Z,57.70
2018-02-14T14:11:48.794Z,57.60
2018-02-14T14:14:17.043Z,58.30
2018-02-14T14:16:44.525Z,58.30
2018-02-14T14:19:12.035Z,57.50
2018-02-14T14:21:40.385Z,57.10
2018-02-14T14:24:07.864Z,56.10
2018-02-14T14:26:35.380Z,56.30
2018-02-14T14:29:04.613Z,57.50
2018-02-14T14:31:32.310Z,57.50
2018-02-14T14:34:00.142Z,56.50
2018-02-14T14:36:28.565Z,57.50
2018-02-14T14:38:56.038Z,56.90
2018-02-14T14:41:23.618Z,56.90
2018-02-14T14:43:51.853Z,56.50
2018-02-14T14:46:19.452Z,56.50
2018-02-14T14:48:48.832Z,56.80
2018-02-14T14:51:16.970Z,56.80
2018-02-14T14:53:44.460Z,56.90
2018-02-14T14:56:12.864Z,57.00
2018-02-14T14:58:40.330Z,57.20
2018-02-14T15:01:09.450Z,57.20
2018-02-14T15:03:37.878Z,57.00
2018-02-14T15:06:05.384Z,56.90
2018-02-14T15:08:33.196Z,56.90
2018-02-14T15:11:00.696Z,57.10
2018-02-14T15:13:28.201Z,57.60
2018-02-14T15:15:55.697Z,57.90
2018-02-14T15:18:24.200Z,58.30
2018-02-14T15:20:51.719Z,57.60
2018-02-14T15:23:19.245Z,57.70
2018-02-14T15:25:46.803Z,58.10
2018-02-14T15:28:14.312Z,58.40
2018-02-14T15:30:41.855Z,58.60
2018-02-14T15:33:09.354Z,58.70
2018-02-14T15:35:37.579Z,59.40
2018-02-14T15:38:05.193Z,59.40
2018-02-14T15:40:34.312Z,59.80
2018-02-14T15:43:01.832Z,60.10
2018-02-14T15:45:30.176Z,60.40
2018-02-14T15:47:58.946Z,60.40
2018-02-14T15:50:26.470Z,60.40
2018-02-14T15:52:54.000Z,60.50
2018-02-14T15:55:21.464Z,60.80
2018-02-14T15:57:48.933Z,61.10
2018-02-14T16:00:17.193Z,61.40
2018-02-14T16:02:44.698Z,61.40
2018-02-14T16:05:12.174Z,61.40
2018-02-14T16:07:41.546Z,61.40
2018-02-14T16:10:09.022Z,61.60
2018-02-14T16:12:36.499Z,61.90
2018-02-14T16:15:03.980Z,62.20
2018-02-14T16:17:31.446Z,62.40
2018-02-14T16:19:58.918Z,62.70
2018-02-14T16:22:27.150Z,63.20
2018-02-14T16:24:55.025Z,63.20
2018-02-14T16:27:22.538Z,63.30
2018-02-14T16:29:51.119Z,64.00
2018-02-14T16:32:19.361Z,64.60
2018-02-14T16:34:46.856Z,64.60
2018-02-14T16:37:14.309Z,65.00
2018-02-14T16:39:42.783Z,65.10
2018-02-14T16:42:11.029Z,65.40
2018-02-14T16:44:38.518Z,65.30
2018-02-14T16:47:07.818Z,65.80
2018-02-14T16:49:35.322Z,65.70
2018-02-14T16:52:08.882Z,66.00
2018-02-14T16:54:37.171Z,66.10
2018-02-14T16:57:05.063Z,66.10
2018-02-14T16:59:32.808Z,66.20
2018-02-14T17:02:00.317Z,66.00
2018-02-14T17:04:27.798Z,65.80
2018-02-14T17:06:55.278Z,65.60
2018-02-14T17:09:22.780Z,65.50
2018-02-14T17:12:06.206Z,65.80
2018-02-14T17:14:33.713Z,65.30
2018-02-14T17:17:01.960Z,64.60
2018-02-14T17:19:29.428Z,64.60
2018-02-14T17:21:56.910Z,64.60
2018-02-14T17:24:27.908Z,64.60
2018-02-14T17:26:55.410Z,64.80
2018-02-14T17:29:23.645Z,65.80
2018-02-14T17:31:51.141Z,65.20
2018-02-14T17:34:18.623Z,65.40
2018-02-14T17:36:46.105Z,65.70
2018-02-14T17:39:13.587Z,66.00
2018-02-14T17:41:41.074Z,66.20
2018-02-14T17:44:09.314Z,66.70
2018-02-14T17:46:36.923Z,66.60
2018-02-14T17:49:08.793Z,67.00
2018-02-14T17:51:36.530Z,67.10
2018-02-14T17:54:04.792Z,67.30
2018-02-14T17:56:32.286Z,67.30
2018-02-14T17:58:59.803Z,67.40
2018-02-14T18:01:27.334Z,67.70
2018-02-14T18:03:54.791Z,67.90
2018-02-14T18:06:22.278Z,68.20
2018-02-14T18:08:49.767Z,68.30
2018-02-14T18:11:24.021Z,68.90
2018-02-14T18:13:51.603Z,68.90
2018-02-14T18:16:20.217Z,69.00
2018-02-14T18:18:47.733Z,69.10
2018-02-14T18:21:15.326Z,69.10
2018-02-14T18:23:42.678Z,69.30
2018-02-14T18:26:11.065Z,69.60
2018-02-14T18:28:38.903Z,69.50
2018-02-14T18:31:06.386Z,69.60
2018-02-14T18:33:34.886Z,69.80
2018-02-14T18:36:03.178Z,70.10
2018-02-14T18:38:30.666Z,70.00
2018-02-14T18:40:58.131Z,70.10
2018-02-14T18:43:25.601Z,70.30
2018-02-14T18:45:53.066Z,70.40
2018-02-14T18:48:20.540Z,70.70
2018-02-14T18:50:48.017Z,70.80
2018-02-14T18:53:18.812Z,70.90
2018-02-14T18:55:56.232Z,71.10
2018-02-14T18:58:24.483Z,71.40
2018-02-14T19:00:51.959Z,71.40
2018-02-14T19:03:19.431Z,71.50
2018-02-14T19:05:47.674Z,71.80
2018-02-14T19:08:15.283Z,71.70
2018-02-14T19:10:42.755Z,71.90
2018-02-14T19:13:10.243Z,72.10
2018-02-14T19:15:37.701Z,72.20
2018-02-14T19:18:05.194Z,72.20
2018-02-14T19:20:32.661Z,72.30
2018-02-14T19:23:00.925Z,72.30
2018-02-14T19:25:28.399Z,72.30
2018-02-14T19:27:55.884Z,72.50
2018-02-14T19:30:25.260Z,72.50
2018-02-14T19:32:53.489Z,72.60
2018-02-14T19:35:20.978Z,72.60
2018-02-14T19:37:49.222Z,73.30
2018-02-14T19:40:16.717Z,72.60
2018-02-14T19:42:44.187Z,72.60
2018-02-14T19:45:14.419Z,72.60
2018-02-14T19:47:41.898Z,72.60
2018-02-14T19:50:09.373Z,72.70
2018-02-14T19:52:37.611Z,72.50
2018-02-14T19:55:05.844Z,72.50
2018-02-14T19:57:44.907Z,72.50
2018-02-14T20:03:27.355Z,72.50
2018-02-14T20:05:54.839Z,72.40
2018-02-14T20:08:22.296Z,72.20
2018-02-14T20:10:49.794Z,72.20
2018-02-14T20:13:17.270Z,72.20
2018-02-14T20:15:45.526Z,72.30
2018-02-14T20:18:13.007Z,72.20
2018-02-14T20:20:41.257Z,72.30
2018-02-14T20:23:08.718Z,72.30
2018-02-14T20:25:36.206Z,72.30
2018-02-14T20:28:04.445Z,72.50
2018-02-14T20:30:31.930Z,72.50
2018-02-14T20:32:59.396Z,72.50
2018-02-14T20:35:31.905Z,72.50
2018-02-14T20:37:59.375Z,72.40
2018-02-14T20:40:26.867Z,72.30
2018-02-14T20:42:54.334Z,72.40
2018-02-14T20:45:36.992Z,72.60
2018-02-14T20:48:08.003Z,72.50
2018-02-14T20:50:36.510Z,72.70
2018-02-14T20:53:10.188Z,72.70
2018-02-14T20:55:38.415Z,72.70
2018-02-14T20:58:05.882Z,72.70
2018-02-14T21:00:33.371Z,72.90
2018-02-14T21:03:01.598Z,73.00
2018-02-14T21:05:29.062Z,73.00
2018-02-14T21:07:56.538Z,73.00
2018-02-14T21:10:24.043Z,73.10
2018-02-14T21:12:51.505Z,73.10
2018-02-14T21:15:18.966Z,73.10
2018-02-14T21:17:46.455Z,73.30
2018-02-14T21:20:13.922Z,73.00
2018-02-14T21:22:41.398Z,72.70
2018-02-14T21:25:08.866Z,72.60
2018-02-14T21:27:37.114Z,72.60
2018-02-14T21:30:04.598Z,72.60
2018-02-14T21:32:32.075Z,72.60
2018-02-14T21:34:59.543Z,72.80
2018-02-14T21:37:27.001Z,72.70
2018-02-14T21:39:54.522Z,72.80
2018-02-14T21:42:22.292Z,72.80
2018-02-14T21:44:51.543Z,72.80
2018-02-14T21:47:19.009Z,72.70
2018-02-14T21:49:46.494Z,72.70
2018-02-14T21:52:13.977Z,72.80
2018-02-14T21:54:41.427Z,72.90
2018-02-14T22:00:02.530Z,72.80
2018-02-14T22:02:30.111Z,72.70
2018-02-14T22:04:57.621Z,72.80
2018-02-14T22:07:25.155Z,73.20
2018-02-14T22:09:52.631Z,72.90
2018-02-14T22:18:31.251Z,73.00
2018-02-14T22:20:58.712Z,73.00
2018-02-14T22:23:26.967Z,73.10
2018-02-14T22:25:54.440Z,73.10
2018-02-14T22:28:21.918Z,73.10
2018-02-14T22:30:49.399Z,73.00
2018-02-14T22:33:17.050Z,73.00
2018-02-14T22:35:44.536Z,73.10
2018-02-14T22:38:12.060Z,73.10
2018-02-14T22:40:39.640Z,73.10
2018-02-14T22:43:07.108Z,73.20
2018-02-14T22:45:34.592Z,73.20
2018-02-14T22:48:02.176Z,73.20
2018-02-14T22:50:29.636Z,73.20
2018-02-14T22:52:57.892Z,73.30
2018-02-14T22:55:25.610Z,73.30
2018-02-14T22:58:01.431Z,73.30
2018-02-14T23:00:29.296Z,73.50
2018-02-14T23:02:56.773Z,73.50
2018-02-14T23:05:24.622Z,73.60
2018-02-14T23:07:52.133Z,73.70
2018-02-14T23:10:19.719Z,73.80
2018-02-14T23:12:47.423Z,73.80
2018-02-14T23:15:15.660Z,73.90
2018-02-14T23:17:45.168Z,73.90
2018-02-14T23:20:12.817Z,74.00
2018-02-14T23:22:40.370Z,74.10
2018-02-14T23:25:07.861Z,74.20
2018-02-14T23:27:35.335Z,74.40
2018-02-14T23:30:03.573Z,74.40
2018-02-14T23:32:31.044Z,74.40
2018-02-14T23:34:58.526Z,74.50
2018-02-14T23:37:26.782Z,74.60
2018-02-14T23:39:54.248Z,74.50
2018-02-14T23:42:21.732Z,74.70
2018-02-14T23:44:53.262Z,74.70
2018-02-14T23:47:21.530Z,74.90
2018-02-14T23:49:49.022Z,74.90
2018-02-14T23:52:16.497Z,75.00
2018-02-14T23:54:43.987Z,74.90
2018-02-14T23:57:11.486Z,75.10
2018-02-14T23:59:39.750Z,75.30
